Flight Track Log - Related Links

Times and Time Zones

All times are in EDT time to prevent confusion due to time zone crossing. See the DAL930 flight status page for this flight to view local times or setup timezone preferences in your user account.

Time Position Orientation Groundspeed Altitude Reporting Facility
EDT Latitude Longitude Course Direction KTS MPH feet Rate Location/Type
Mon 11:28:57 AM 40.7167 -73.8167 217° Southwest 232 267 2,400  Level New York TRACON
Mon 11:29:51 AM 40.6667 -73.8500 207° Southwest 244 281 5,100 2,947 Climbing New York TRACON
Mon 11:30:51 AM 40.6000 -73.9000 210° Southwest 268 308 8,000 2,800 Climbing New York TRACON
Mon 11:31:51 AM 40.5333 -73.9500 210° Southwest 276 318 10,700 1,842 Climbing New York TRACON
Mon 11:34:00 AM 40.1238 -74.1762 217° Southwest  Level FlightAware Approximate
Mon 11:34:13 AM 40.3183 -74.0733 204° Southwest 352 405 14,200  Level Washington Center
Mon 11:35:13 AM 40.2192 -74.1381 206° Southwest 375 432 16,900 2,150 Climbing Washington Center
Mon 11:36:13 AM 40.1286 -74.2322 218° Southwest 411 473 18,500 1,700 Climbing Washington Center
Mon 11:37:13 AM 40.0483 -74.3206 220° Southwest 435 501 20,300 2,050 Climbing Washington Center
Mon 11:38:13 AM 39.9453 -74.4306 219° Southwest 440 506 22,600 2,300 Climbing Washington Center
Mon 11:39:13 AM 39.8669 -74.5156 220° Southwest 430 495 24,900 1,650 Climbing Washington Center
Mon 11:40:13 AM 39.7658 -74.6225 219° Southwest 430 495 25,900 1,300 Climbing Washington Center
Mon 11:41:13 AM 39.6811 -74.7125 219° Southwest 435 501 27,500 1,650 Climbing Washington Center
Mon 11:42:13 AM 39.5819 -74.8214 220° Southwest 435 501 29,200 1,500 Climbing Washington Center
Mon 11:43:13 AM 39.4969 -74.9083 218° Southwest 435 501 30,500 1,200 Climbing Washington Center
Mon 11:44:13 AM 39.3953 -75.0169 220° Southwest 440 506 31,600 1,400 Climbing Washington Center
Mon 11:45:13 AM 39.3144 -75.1006 219° Southwest 440 506 33,300 1,200 Climbing Washington Center
Mon 11:46:13 AM 39.1939 -75.1606 201° Southwest 419 482 34,000 350 Climbing Washington Center
Mon 11:47:13 AM 39.1003 -75.2011 199° South 419 482 34,000  Level Washington Center
Mon 11:48:13 AM 38.9878 -75.2472 198° South 419 482 34,000  Level Washington Center
Mon 11:49:13 AM 38.8775 -75.2931 198° South 424 488 34,000  Level Washington Center
Mon 11:50:13 AM 38.7650 -75.3414 199° South 424 488 34,000  Level Washington Center
Mon 11:51:13 AM 38.6567 -75.3897 199° South 424 488 34,000  Level Washington Center
Mon 11:52:13 AM 38.5381 -75.4589 205° Southwest 430 495 34,000  Level Washington Center
Mon 11:53:13 AM 38.4336 -75.5203 205° Southwest 430 495 34,000  Level Washington Center
Mon 11:54:13 AM 38.3317 -75.5811 205° Southwest 419 482 34,000  Level Washington Center
Mon 11:55:13 AM 38.2272 -75.6419 205° Southwest 414 476 34,000  Level Washington Center
Mon 11:56:13 AM 38.1250 -75.7053 206° Southwest 414 476 34,000  Level Washington Center
Mon 11:57:13 AM 38.0250 -75.7736 208° Southwest 409 471 34,000  Level Washington Center
Mon 11:58:13 AM 37.9206 -75.8286 203° Southwest 409 471 34,000  Level Washington Center
Mon 11:59:13 AM 37.8183 -75.8942 207° Southwest 409 471 34,000 -50 Level Washington Center
Mon 12:00:13 PM 37.7181 -75.9619 208° Southwest 409 471 33,900 -50 Descending Washington Center
Mon 12:01:13 PM 37.6175 -76.0217 205° Southwest 409 471 33,900  Level Washington Center
Mon 12:02:13 PM 37.5131 -76.0842 205° Southwest 409 471 33,900  Level Washington Center
Mon 12:03:13 PM 37.4086 -76.1461 205° Southwest 409 471 33,900 50 Level Washington Center
Mon 12:04:13 PM 37.3019 -76.2028 203° Southwest 409 471 34,000 50 Climbing Washington Center
Mon 12:05:13 PM 37.1972 -76.2619 204° Southwest 414 476 34,000  Level Washington Center
Mon 12:06:13 PM 37.0947 -76.3261 207° Southwest 414 476 34,000 100 Level Washington Center
Mon 12:07:13 PM 36.9878 -76.3875 205° Southwest 419 482 34,200  Climbing Washington Center
Mon 12:08:13 PM 36.8831 -76.4489 205° Southwest 419 482 34,000 -100 Descending Washington Center
Mon 12:09:13 PM 36.7783 -76.5072 204° Southwest 419 482 34,000  Level Washington Center
Mon 12:10:13 PM 36.6736 -76.5708 206° Southwest 419 482 34,000  Level Washington Center
Mon 12:11:13 PM 36.5689 -76.6342 206° Southwest 419 482 34,000  Level Washington Center
Mon 12:12:13 PM 36.4639 -76.6947 205° Southwest 424 488 34,000  Level Washington Center
Mon 12:13:13 PM 36.3569 -76.7553 205° Southwest 419 482 34,000  Level Washington Center
Mon 12:14:13 PM 36.2519 -76.8128 204° Southwest 419 482 34,000 -50 Level Washington Center
Mon 12:15:13 PM 36.1472 -76.8703 204° Southwest 419 482 33,900 -50 Descending Washington Center
Mon 12:16:13 PM 36.0400 -76.9303 204° Southwest 419 482 33,900  Level Washington Center
Mon 12:17:13 PM 35.9350 -76.9900 205° Southwest 419 482 33,900  Level Washington Center
Mon 12:18:13 PM 35.8300 -77.0497 205° Southwest 419 482 33,900  Level Washington Center
Mon 12:19:13 PM 35.7292 -77.1119 207° Southwest 419 482 33,900 50 Level Washington Center
Mon 12:20:13 PM 35.6344 -77.1664 205° Southwest 412 474 34,000 50 Climbing Washington Center
Mon 12:21:13 PM 35.5314 -77.2231 204° Southwest 412 474 34,000  Level Washington Center
Mon 12:22:13 PM 35.4264 -77.2819 205° Southwest 412 474 34,000  Level Washington Center
Mon 12:23:13 PM 35.3211 -77.3408 205° Southwest 417 480 34,000  Level Washington Center
Mon 12:24:13 PM 35.2139 -77.4022 205° Southwest 423 487 34,000  Level Washington Center
Mon 12:25:13 PM 35.1086 -77.4581 203° Southwest 418 481 34,000  Level Washington Center
Mon 12:26:13 PM 35.0033 -77.5167 205° Southwest 418 481 34,000  Level Washington Center
Mon 12:27:13 PM 34.8961 -77.5747 204° Southwest 418 481 34,000  Level Washington Center
Mon 12:28:13 PM 34.7928 -77.6356 206° Southwest 418 481 34,000  Level Washington Center
Mon 12:29:13 PM 34.6728 -77.6983 203° Southwest 423 487 34,000  Level Washington Center
Mon 12:30:13 PM 34.5675 -77.7561 204° Southwest 423 487 34,000  Level Washington Center
Mon 12:31:13 PM 34.4619 -77.8186 206° Southwest 423 487 34,000  Level Washington Center
Mon 12:32:13 PM 34.3544 -77.8736 203° Southwest 423 487 34,000  Level Washington Center
Mon 12:36:04 PM 33.9169 -78.0028 194° South 444 511 34,000  Level Jacksonville Center
Mon 12:37:04 PM 33.7889 -78.0400 194° South 449 517 34,000  Level Jacksonville Center
Mon 12:38:04 PM 33.6817 -78.0708 193° South 449 517 34,000 -50 Level Jacksonville Center
Mon 12:39:03 PM 33.5661 -78.1044 194° South 449 517 33,900  Descending Jacksonville Center
Mon 12:40:03 PM 33.4506 -78.1356 193° South 444 511 34,000 50 Climbing Jacksonville Center
Mon 12:41:03 PM 33.3328 -78.1717 194° South 444 511 34,000  Level Jacksonville Center
Mon 12:42:03 PM 33.2172 -78.2028 193° South 439 505 34,000  Level Jacksonville Center
Mon 12:43:04 PM 33.0994 -78.2336 192° South 439 505 34,000  Level Jacksonville Center
Mon 12:44:03 PM 32.9817 -78.2669 193° South 434 499 34,000 -50 Level Jacksonville Center
Mon 12:45:03 PM 32.8639 -78.2978 192° South 434 499 33,900 -50 Descending Jacksonville Center
Mon 12:46:04 PM 32.7442 -78.3361 195° South 434 499 33,900  Level Jacksonville Center
Mon 12:47:04 PM 32.6283 -78.3689 193° South 434 499 33,900 50 Level Jacksonville Center
Mon 12:48:04 PM 32.5125 -78.3994 193° South 429 494 34,000 50 Climbing Jacksonville Center
Mon 12:49:04 PM 32.3969 -78.4322 193° South 429 494 34,000  Level Jacksonville Center
Mon 12:50:04 PM 32.2711 -78.4728 195° South 429 494 34,000  Level Jacksonville Center
Mon 12:51:03 PM 32.1575 -78.5075 195° South 429 494 34,000  Level Jacksonville Center
Mon 12:52:04 PM 32.0375 -78.5403 193° South 429 494 34,000  Level Jacksonville Center
Mon 12:53:04 PM 31.9258 -78.5725 194° South 429 494 34,000  Level Jacksonville Center
Mon 12:54:04 PM 31.8081 -78.6050 193° South 439 505 34,000  Level Jacksonville Center
Mon 12:55:04 PM 31.6922 -78.6419 195° South 434 499 34,000  Level Jacksonville Center
Mon 12:56:03 PM 31.5744 -78.6742 193° South 429 494 34,000  Level Jacksonville Center
Mon 12:57:04 PM 31.4564 -78.7064 193° South 424 488 34,000  Level Jacksonville Center
Mon 12:58:04 PM 31.3408 -78.7406 194° South 434 499 34,000  Level Jacksonville Center
Mon 12:59:04 PM 31.2208 -78.7775 195° South 438 504 34,000  Level Jacksonville Center
Mon 01:00:04 PM 31.1069 -78.8067 192° South 438 504 34,000  Level Jacksonville Center
Mon 01:01:04 PM 30.9850 -78.8436 195° South 437 503 34,000 -50 Level Jacksonville Center
Mon 01:02:04 PM 30.8650 -78.8753 193° South 437 503 33,900  Descending Jacksonville Center
Mon 01:03:04 PM 30.7469 -78.9094 194° South 437 503 34,000 50 Climbing Jacksonville Center
Mon 01:04:04 PM 30.6292 -78.9433 194° South 437 503 34,000 -54 Level Jacksonville Center
Mon 01:04:56 PM 30.5378 -78.9672 193° South 448 516 33,900  Descending Miami Center
Mon 01:05:56 PM 30.4269 -78.9986 194° South 448 516 34,000 50 Climbing Miami Center
Mon 01:06:56 PM 30.3014 -79.0322 193° South 448 516 34,000  Level Miami Center
Mon 01:07:56 PM 30.1861 -79.0633 193° South 448 516 34,000  Level Miami Center
Mon 01:08:56 PM 30.0689 -79.0922 192° South 437 503 34,000  Level Miami Center
Mon 01:09:56 PM 29.9536 -79.1378 199° South 437 503 34,000  Level Miami Center
Mon 01:10:56 PM 29.8344 -79.1639 191° South 437 503 34,000  Level Miami Center
Mon 01:11:56 PM 29.7150 -79.1900 191° South 437 503 34,000  Level Miami Center
Mon 01:12:56 PM 29.5978 -79.2186 192° South 437 503 34,000  Level Miami Center
Mon 01:13:56 PM 29.4742 -79.2564 195° South 432 497 34,000  Level Miami Center
Mon 01:14:56 PM 29.3547 -79.2822 191° South 433 498 34,000  Level Miami Center
Mon 01:15:56 PM 29.2375 -79.3083 191° South 433 498 34,000  Level Miami Center
Mon 01:16:56 PM 29.1222 -79.3389 193° South 427 491 34,000  Level Miami Center
Mon 01:17:56 PM 29.0069 -79.3672 192° South 427 491 34,000  Level Miami Center
Mon 01:18:56 PM 28.8897 -79.3931 191° South 433 498 34,000  Level Miami Center
Mon 01:19:56 PM 28.7744 -79.4236 193° South 433 498 34,000  Level Miami Center
Mon 01:20:56 PM 28.6569 -79.4517 192° South 433 498 34,000  Level Miami Center
Mon 01:21:56 PM 28.5397 -79.4794 192° South 433 498 34,000  Level Miami Center
Mon 01:22:56 PM 28.4222 -79.5097 193° South 433 498 34,000  Level Miami Center
Mon 01:23:56 PM 28.3028 -79.5400 193° South 433 498 34,000  Level Miami Center
Mon 01:24:56 PM 28.1811 -79.5678 191° South 433 498 34,000  Level Miami Center
Mon 01:25:56 PM 28.0594 -79.5956 191° South 438 504 34,000  Level Miami Center
Mon 01:26:56 PM 27.9378 -79.6256 192° South 443 510 34,000  Level Miami Center
Mon 01:27:56 PM 27.8331 -79.6511 192° South 443 510 34,000 -300 Level Miami Center
Mon 01:28:56 PM 27.6989 -79.6831 192° South 443 510 33,400 -1,750 Descending Miami Center
Mon 01:29:56 PM 27.5769 -79.7153 193° South 449 517 30,500 -3,200 Descending Miami Center
Mon 01:30:56 PM 27.4556 -79.7425 191° South 449 517 27,000 -3,250 Descending Miami Center
Mon 01:31:56 PM 27.3383 -79.7467 182° South 459 528 24,000 -2,900 Descending Miami Center
Mon 01:32:56 PM 27.2133 -79.7364 176° South 459 528 21,200 -2,800 Descending Miami Center
Mon 01:33:56 PM 27.0800 -79.7217 174° South 446 513 18,400 -2,500 Descending Miami Center
Mon 01:34:56 PM 26.9633 -79.7094 175° South 430 495 16,200 -1,700 Descending Miami Center
Mon 01:35:56 PM 26.8653 -79.6978 174° South 407 468 15,000 -828 Descending Miami Center
Mon 01:36:23 PM 26.8006 -79.6936 177° South 385 443 15,000  Level Miami Center
Mon 01:36:56 PM 26.7547 -79.6925 179° South 402 463 15,000 -764 Level Miami Center
Mon 01:37:18 PM 26.7042 -79.7078 195° South 368 423 14,300 -2,400 Descending Miami Center
Mon 01:37:56 PM 26.6494 -79.7319 202° Southwest 373 429 12,600 -2,516 Descending Miami Center
Mon 01:38:20 PM 26.6114 -79.7519 205° Southwest 367 422 11,700 -2,000 Descending Miami Center
Mon 01:38:56 PM 26.5589 -79.7739 201° Southwest 373 429 10,600 -1,574 Descending Miami Center
Mon 01:39:21 PM 26.5208 -79.7914 202° Southwest 327 376 10,100 -1,600 Descending Miami Center
Mon 01:39:56 PM 26.4786 -79.8136 205° Southwest 330 380 9,000 -1,869 Descending Miami Center
Mon 01:40:22 PM 26.4428 -79.8314 204° Southwest 290 334 8,200 -1,000 Descending Miami Center
Mon 01:40:56 PM 26.4050 -79.8489 203° Southwest 304 350 8,000 -197 Descending Miami Center
Mon 01:41:23 PM 26.3731 -79.8667 207° Southwest 284 327 8,000 -400 Level Miami Center
Mon 01:41:56 PM 26.3411 -79.8983 222° Southwest 286 329 7,600 -1,065 Descending Miami Center
Mon 01:42:25 PM 26.3092 -79.9275 219° Southwest 283 326 6,900 -1,400 Descending Miami Center
Mon 01:42:56 PM 26.2814 -79.9547 221° Southwest 286 329 6,200 -885 Descending Miami Center
Mon 01:43:26 PM 26.2494 -79.9839 219° Southwest 278 320 6,000 -200 Descending Miami Center
Mon 01:43:56 PM 26.2325 -80.0044 227° Southwest 280 322 6,000  Level Miami Center
Mon 01:44:27 PM 26.1919 -80.0428 220° Southwest 274 315 6,000  Level Miami Center
Mon 01:44:56 PM 26.1789 -80.0586 227° Southwest 275 316 6,000  Level Miami Center
Mon 01:45:23 PM 26.1633 -80.1019 248° West 223 257 6,000  Level Miami Center
Mon 01:45:56 PM 26.1586 -80.1275 258° West 243 280 6,000 -358 Level Miami Center
Mon 01:46:30 PM 26.1472 -80.1756 255° West 225 259 5,600 -1,137 Descending Miami Center
Mon 01:47:31 PM 26.1478 -80.2450 271° West 218 251 4,200 -836 Descending Miami Center
Mon 01:48:32 PM 26.1439 -80.3144 266° West 220 253 3,900 -667 Descending Miami Center
Mon 01:49:28 PM 26.1019 -80.3225 190° South 188 216 2,900 -1,026 Descending Miami Center
Mon 01:50:29 PM 26.0761 -80.2731 120° Southeast 180 207 1,900 -878 Descending Miami Center
Mon 01:51:31 PM 26.0750 -80.2244 91° East 138 159 1,100 -780 Descending Miami Center
Mon 01:52:32 PM 26.0739 -80.1806 92° East 141 162 300 -787 Descending Miami Center

Login

Don't have an account? Register now (free) for customized features, flight alerts, and more!